createdAt,value
2017-06-24T00:00:24.853Z,23.93
2017-06-24T00:02:50.796Z,22.53
2017-06-24T00:05:16.746Z,25.90
2017-06-24T00:07:42.938Z,23.70
2017-06-24T00:10:09.178Z,24.57
2017-06-24T00:12:35.330Z,19.40
2017-06-24T00:15:02.343Z,20.40
2017-06-24T00:17:28.480Z,19.60
2017-06-24T00:19:54.499Z,22.17
2017-06-24T00:22:20.575Z,26.20
2017-06-24T00:24:46.540Z,25.63
2017-06-24T00:27:12.468Z,18.70
2017-06-24T00:29:38.445Z,21.03
2017-06-24T00:32:05.113Z,24.73
2017-06-24T00:34:31.050Z,18.17
2017-06-24T00:36:57.017Z,23.13
2017-06-24T00:39:23.082Z,22.70
2017-06-24T00:41:49.056Z,21.90
2017-06-24T00:44:15.145Z,23.30
2017-06-24T00:46:41.114Z,23.70
2017-06-24T00:49:07.798Z,21.90
2017-06-24T00:51:33.723Z,26.83
2017-06-24T00:53:59.666Z,21.40
2017-06-24T00:56:25.717Z,17.60
2017-06-24T00:58:51.798Z,22.13
2017-06-24T01:01:18.685Z,24.17
2017-06-24T01:03:44.699Z,24.33
2017-06-24T01:06:10.762Z,22.50
2017-06-24T01:08:36.775Z,21.93
2017-06-24T01:11:02.769Z,20.20
2017-06-24T01:13:29.159Z,21.13
2017-06-24T01:15:55.275Z,22.00
2017-06-24T01:18:21.379Z,28.07
2017-06-24T01:20:48.060Z,24.47
2017-06-24T01:23:13.986Z,35.67
2017-06-24T01:25:39.920Z,26.07
2017-06-24T01:28:05.870Z,29.37
2017-06-24T01:30:31.914Z,29.10
2017-06-24T01:32:57.840Z,23.50
2017-06-24T01:35:23.788Z,21.97
2017-06-24T01:37:49.729Z,20.03
2017-06-24T01:40:15.810Z,23.37
2017-06-24T01:42:41.894Z,24.73
2017-06-24T01:45:08.046Z,21.83
2017-06-24T01:47:34.028Z,22.10
2017-06-24T01:50:00.086Z,28.07
2017-06-24T01:52:26.932Z,25.17
2017-06-24T01:54:52.900Z,31.97
2017-06-24T01:57:18.977Z,22.70
2017-06-24T01:59:45.040Z,20.13
2017-06-24T02:02:10.972Z,20.00
2017-06-24T02:04:36.913Z,18.07
2017-06-24T02:07:02.844Z,20.43
2017-06-24T02:09:28.776Z,22.47
2017-06-24T02:11:55.457Z,25.53
2017-06-24T02:14:21.376Z,23.50
2017-06-24T02:16:47.308Z,17.90
2017-06-24T02:19:13.232Z,22.00
2017-06-24T02:21:39.178Z,20.07
2017-06-24T02:24:05.112Z,21.50
2017-06-24T02:26:31.784Z,19.73
2017-06-24T02:28:57.714Z,18.43
2017-06-24T02:31:23.646Z,24.60
2017-06-24T02:33:49.595Z,16.83
2017-06-24T02:36:15.533Z,19.60
2017-06-24T02:38:41.456Z,26.57
2017-06-24T02:41:07.385Z,25.40
2017-06-24T02:43:33.320Z,18.40
2017-06-24T02:45:59.272Z,21.43
2017-06-24T02:48:25.217Z,26.53
2017-06-24T02:50:51.157Z,17.13
2017-06-24T02:53:17.820Z,22.97
2017-06-24T02:55:43.748Z,20.90
2017-06-24T02:58:09.677Z,20.87
2017-06-24T03:00:35.609Z,23.93
2017-06-24T03:03:01.554Z,21.20
2017-06-24T03:05:27.481Z,17.07
2017-06-24T03:07:53.416Z,23.60
2017-06-24T03:10:19.341Z,18.70
2017-06-24T03:12:46.017Z,21.40
2017-06-24T03:15:11.952Z,19.43
2017-06-24T03:17:37.880Z,20.20
2017-06-24T03:20:03.869Z,29.43
2017-06-24T03:22:29.803Z,18.03
2017-06-24T03:24:55.768Z,18.23
2017-06-24T03:27:21.705Z,16.77
2017-06-24T03:29:48.376Z,17.53
2017-06-24T03:32:14.337Z,18.70
2017-06-24T03:34:40.268Z,26.20
2017-06-24T03:37:06.952Z,19.83
2017-06-24T03:39:32.896Z,25.20
2017-06-24T03:41:58.840Z,19.87
2017-06-24T03:44:24.762Z,21.73
2017-06-24T03:46:50.700Z,21.70
2017-06-24T03:49:17.368Z,17.77
2017-06-24T03:51:43.311Z,25.23
2017-06-24T03:54:09.268Z,16.10
2017-06-24T03:56:35.205Z,21.37
2017-06-24T03:59:01.869Z,23.17
2017-06-24T04:01:27.826Z,18.33
2017-06-24T04:04:01.600Z,17.23
2017-06-24T04:06:27.537Z,17.93
2017-06-24T04:08:53.459Z,14.17
2017-06-24T04:11:19.383Z,22.73
2017-06-24T04:13:45.317Z,16.53
2017-06-24T04:16:11.239Z,21.30
2017-06-24T04:18:37.188Z,25.80
2017-06-24T04:21:03.867Z,12.67
2017-06-24T04:23:29.801Z,22.63
2017-06-24T04:25:55.720Z,17.47
2017-06-24T04:28:21.648Z,18.67
2017-06-24T04:30:47.587Z,21.67
2017-06-24T04:33:13.530Z,17.40
2017-06-24T04:35:40.200Z,22.23
2017-06-24T04:38:06.356Z,14.47
2017-06-24T04:40:32.293Z,18.30
2017-06-24T04:42:58.219Z,16.77
2017-06-24T04:45:24.152Z,13.83
2017-06-24T04:47:50.081Z,16.50
2017-06-24T04:50:16.025Z,14.93
2017-06-24T04:52:41.972Z,19.87
2017-06-24T04:55:07.920Z,17.50
2017-06-24T04:57:33.840Z,20.73
2017-06-24T04:59:59.764Z,18.70
2017-06-24T05:02:25.721Z,19.20
2017-06-24T05:04:51.649Z,12.20
2017-06-24T05:07:17.596Z,14.80
2017-06-24T05:09:43.530Z,19.00
2017-06-24T05:12:09.460Z,17.80
2017-06-24T05:14:35.397Z,19.60
2017-06-24T05:17:02.075Z,19.90
2017-06-24T05:19:28.016Z,13.80
2017-06-24T05:21:53.978Z,12.87
2017-06-24T05:24:19.901Z,12.80
2017-06-24T05:26:46.570Z,15.97
2017-06-24T05:29:12.501Z,13.90
2017-06-24T05:31:38.452Z,18.73
2017-06-24T05:34:04.369Z,17.03
2017-06-24T05:36:30.341Z,15.00
2017-06-24T05:38:56.301Z,14.60
2017-06-24T05:41:22.228Z,13.97
2017-06-24T05:43:48.244Z,16.13
2017-06-24T05:46:14.367Z,15.17
2017-06-24T05:48:40.441Z,19.83
2017-06-24T05:51:07.159Z,11.40
2017-06-24T05:53:33.455Z,15.40
2017-06-24T05:55:59.644Z,15.33
2017-06-24T05:58:25.641Z,13.27
2017-06-24T06:00:51.585Z,14.70
2017-06-24T06:03:18.522Z,12.53
2017-06-24T06:05:44.780Z,15.40
2017-06-24T06:08:10.869Z,12.13
2017-06-24T06:10:37.552Z,12.90
2017-06-24T06:13:03.644Z,14.13
2017-06-24T06:15:29.895Z,21.87
2017-06-24T06:17:56.274Z,12.67
2017-06-24T06:20:22.322Z,17.90
2017-06-24T06:22:48.448Z,13.17
2017-06-24T06:25:14.667Z,20.10
2017-06-24T06:27:40.644Z,15.13
2017-06-24T06:30:06.574Z,23.70
2017-06-24T06:32:32.567Z,22.50
2017-06-24T06:34:58.558Z,16.27
2017-06-24T06:37:24.512Z,18.40
2017-06-24T06:39:50.498Z,15.60
2017-06-24T06:42:17.353Z,15.10
2017-06-24T06:44:44.133Z,22.53
2017-06-24T06:47:10.073Z,19.90
2017-06-24T06:49:36.796Z,20.70
2017-06-24T06:52:03.500Z,19.87
2017-06-24T06:54:29.423Z,24.20
2017-06-24T06:56:55.344Z,24.67
2017-06-24T06:59:21.272Z,20.90
2017-06-24T07:01:47.200Z,20.63
2017-06-24T07:04:13.134Z,19.37
2017-06-24T07:06:39.049Z,23.93
2017-06-24T07:09:04.976Z,20.13
2017-06-24T07:11:30.896Z,19.30
2017-06-24T07:13:56.829Z,22.97
2017-06-24T07:16:23.508Z,21.30
2017-06-24T07:18:49.452Z,20.17
2017-06-24T07:21:15.379Z,21.77
2017-06-24T07:23:41.313Z,27.70
2017-06-24T07:26:07.237Z,21.87
2017-06-24T07:28:33.180Z,15.17
2017-06-24T07:30:59.117Z,18.30
2017-06-24T07:33:25.040Z,18.60
2017-06-24T07:35:50.964Z,21.63
2017-06-24T07:38:16.904Z,20.50
2017-06-24T07:40:42.833Z,16.60
2017-06-24T07:43:08.753Z,18.87
2017-06-24T07:45:34.690Z,25.50
2017-06-24T07:48:00.638Z,21.23
2017-06-24T07:50:26.616Z,19.13
2017-06-24T07:52:52.611Z,19.37
2017-06-24T07:55:18.565Z,18.30
2017-06-24T07:57:44.504Z,21.13
2017-06-24T08:00:10.438Z,21.80
2017-06-24T08:02:37.140Z,24.27
2017-06-24T08:05:03.073Z,19.10
2017-06-24T08:07:29.057Z,15.90
2017-06-24T08:09:55.028Z,21.93
2017-06-24T08:12:20.965Z,21.87
2017-06-24T08:14:47.637Z,22.13
2017-06-24T08:17:13.581Z,23.50
2017-06-24T08:19:39.556Z,18.40
2017-06-24T08:22:05.499Z,18.47
2017-06-24T08:24:31.446Z,18.90
2017-06-24T08:26:57.433Z,17.77
2017-06-24T08:29:23.376Z,13.87
2017-06-24T08:31:49.329Z,18.57
2017-06-24T08:34:15.263Z,13.43
2017-06-24T08:36:41.217Z,23.23
2017-06-24T08:39:07.152Z,19.87
2017-06-24T08:41:33.098Z,15.90
2017-06-24T08:43:59.034Z,15.20
2017-06-24T08:46:24.972Z,19.60
2017-06-24T08:48:50.917Z,15.67
2017-06-24T08:51:16.872Z,18.00
2017-06-24T08:53:42.809Z,16.10
2017-06-24T08:56:08.776Z,17.40
2017-06-24T08:58:35.461Z,18.23
2017-06-24T09:01:01.416Z,16.03
2017-06-24T09:03:28.116Z,17.43
2017-06-24T09:05:54.096Z,17.03
2017-06-24T09:08:20.037Z,13.57
2017-06-24T09:10:45.985Z,16.30
2017-06-24T09:13:11.931Z,17.67
2017-06-24T09:15:54.785Z,15.77
2017-06-24T09:18:20.712Z,16.57
2017-06-24T09:20:46.661Z,16.27
2017-06-24T09:23:12.601Z,14.90
2017-06-24T09:25:38.544Z,17.10
2017-06-24T09:28:05.249Z,15.70
2017-06-24T09:30:31.201Z,14.50
2017-06-24T09:32:57.911Z,24.67
2017-06-24T09:35:23.860Z,15.77
2017-06-24T09:37:50.554Z,13.00
2017-06-24T09:40:16.506Z,19.90
2017-06-24T09:42:42.475Z,14.53
2017-06-24T09:45:08.433Z,18.10
2017-06-24T09:47:34.389Z,11.33
2017-06-24T09:50:00.361Z,14.37
2017-06-24T09:52:26.341Z,13.43
2017-06-24T09:54:52.300Z,19.07
2017-06-24T09:57:18.257Z,14.40
2017-06-24T09:59:44.418Z,13.07
2017-06-24T10:02:11.368Z,15.57
2017-06-24T10:04:37.453Z,17.43
2017-06-24T10:07:03.454Z,15.67
2017-06-24T10:09:29.454Z,11.40
2017-06-24T10:11:56.287Z,18.70
2017-06-24T10:14:23.019Z,18.73
2017-06-24T10:16:49.731Z,12.90
2017-06-24T10:19:15.835Z,12.67
2017-06-24T10:21:42.314Z,10.67
2017-06-24T10:24:08.420Z,13.40
2017-06-24T10:26:34.829Z,13.53
2017-06-24T10:29:02.057Z,13.40
2017-06-24T10:31:29.328Z,15.67
2017-06-24T10:33:56.151Z,17.30
2017-06-24T10:36:22.763Z,13.77
2017-06-24T10:38:48.857Z,13.80
2017-06-24T10:41:14.820Z,14.87
2017-06-24T10:43:40.767Z,15.43
2017-06-24T10:46:06.764Z,10.00
2017-06-24T10:48:32.786Z,12.20
2017-06-24T10:50:59.173Z,12.13
2017-06-24T10:53:25.176Z,11.77
2017-06-24T10:55:51.280Z,15.90
2017-06-24T10:58:17.228Z,12.17
2017-06-24T11:00:43.216Z,13.57
2017-06-24T11:03:09.167Z,21.50
2017-06-24T11:05:35.117Z,11.90
2017-06-24T11:08:01.092Z,14.63
2017-06-24T11:10:27.045Z,17.30
2017-06-24T11:12:52.989Z,10.83
2017-06-24T11:15:18.937Z,13.87
2017-06-24T11:17:45.626Z,12.83
2017-06-24T11:20:11.809Z,11.63
2017-06-24T11:22:37.872Z,10.63
2017-06-24T11:25:04.125Z,24.00
2017-06-24T11:27:30.511Z,10.90
2017-06-24T11:29:56.517Z,17.63
2017-06-24T11:32:22.473Z,12.17
2017-06-24T11:34:48.461Z,12.97
2017-06-24T11:37:14.888Z,10.20
2017-06-24T11:39:41.633Z,12.00
2017-06-24T11:42:07.854Z,11.80
2017-06-24T11:44:33.984Z,12.83
2017-06-24T11:46:59.953Z,12.80
2017-06-24T11:49:25.897Z,14.10
2017-06-24T11:51:51.852Z,15.10
2017-06-24T11:54:17.792Z,11.67
2017-06-24T11:56:43.760Z,15.67
2017-06-24T11:59:10.437Z,14.67
2017-06-24T12:01:36.378Z,12.30
2017-06-24T12:04:02.356Z,12.07
2017-06-24T12:06:28.308Z,11.13
2017-06-24T12:08:54.268Z,12.40
2017-06-24T12:11:20.944Z,11.37
2017-06-24T12:13:46.890Z,11.47
2017-06-24T12:16:12.832Z,9.90
2017-06-24T12:18:38.788Z,12.33
2017-06-24T12:21:04.729Z,14.10
2017-06-24T12:23:30.682Z,12.90
2017-06-24T12:25:56.633Z,10.53
2017-06-24T12:28:23.355Z,12.97
2017-06-24T12:30:49.289Z,12.90
2017-06-24T12:33:15.973Z,9.27
2017-06-24T12:35:41.917Z,15.20
2017-06-24T12:38:07.861Z,10.47
2017-06-24T12:40:34.556Z,12.77
2017-06-24T12:43:00.505Z,13.50
2017-06-24T12:45:26.453Z,10.23
2017-06-24T12:47:53.160Z,13.33
2017-06-24T12:50:19.112Z,15.30
2017-06-24T12:52:45.832Z,13.80
2017-06-24T12:55:11.812Z,10.33
2017-06-24T12:57:43.905Z,17.43
2017-06-24T13:00:09.840Z,15.30
2017-06-24T13:02:35.782Z,11.83
2017-06-24T13:05:02.485Z,10.30
2017-06-24T13:07:35.596Z,11.87
2017-06-24T13:10:01.534Z,12.97
2017-06-24T13:12:27.488Z,13.37
2017-06-24T13:14:53.432Z,19.53
2017-06-24T13:17:19.400Z,31.67
2017-06-24T13:19:45.349Z,18.07
2017-06-24T13:22:11.292Z,14.83
2017-06-24T13:24:37.270Z,20.77
2017-06-24T13:27:03.229Z,16.90
2017-06-24T13:29:29.196Z,20.67
2017-06-24T13:31:55.887Z,17.57
2017-06-24T13:34:21.865Z,19.43
2017-06-24T13:36:47.832Z,19.10
2017-06-24T13:39:13.770Z,19.67
2017-06-24T13:41:39.734Z,21.23
2017-06-24T13:44:05.694Z,19.13
2017-06-24T13:46:31.642Z,17.13
2017-06-24T13:48:58.354Z,18.47
2017-06-24T13:51:24.329Z,17.63
2017-06-24T13:53:50.272Z,19.97
2017-06-24T13:56:16.224Z,13.97
2017-06-24T13:58:42.173Z,15.67
2017-06-24T14:01:08.121Z,16.83
2017-06-24T14:03:34.060Z,16.43
2017-06-24T14:06:00.004Z,16.20
2017-06-24T14:08:25.965Z,15.30
2017-06-24T14:10:52.658Z,17.07
2017-06-24T14:13:18.613Z,12.97
2017-06-24T14:15:44.557Z,19.63
2017-06-24T14:18:11.237Z,14.33
2017-06-24T14:20:37.192Z,19.03
2017-06-24T14:23:03.165Z,13.63
2017-06-24T14:25:29.122Z,19.07
2017-06-24T14:27:55.106Z,16.60
2017-06-24T14:30:21.065Z,15.57
2017-06-24T14:32:47.001Z,18.20
2017-06-24T14:35:13.697Z,17.00
2017-06-24T14:37:39.637Z,13.13
2017-06-24T14:40:05.584Z,16.30
2017-06-24T14:42:32.271Z,14.13
2017-06-24T14:44:58.225Z,22.60
2017-06-24T14:47:24.168Z,17.50
2017-06-24T14:49:50.860Z,18.30
2017-06-24T14:52:16.825Z,22.07
2017-06-24T14:54:43.508Z,22.83
2017-06-24T14:57:09.460Z,16.40
2017-06-24T14:59:35.425Z,18.27
2017-06-24T15:02:02.112Z,15.80
2017-06-24T15:04:28.068Z,19.67
2017-06-24T15:06:54.765Z,19.13
2017-06-24T15:09:20.701Z,19.87
2017-06-24T15:11:46.661Z,16.03
2017-06-24T15:14:12.608Z,27.97
2017-06-24T15:16:38.576Z,17.27
2017-06-24T15:19:04.510Z,18.07
2017-06-24T15:21:31.326Z,22.73
2017-06-24T15:23:57.273Z,18.83
2017-06-24T15:26:23.961Z,18.13
2017-06-24T15:28:49.905Z,14.33
2017-06-24T15:31:15.864Z,19.37
2017-06-24T15:33:41.834Z,21.97
2017-06-24T15:36:07.781Z,16.33
2017-06-24T15:38:33.749Z,16.90
2017-06-24T15:40:59.700Z,16.93
2017-06-24T15:43:25.650Z,17.70
2017-06-24T15:45:51.596Z,17.50
2017-06-24T15:48:17.544Z,18.47
2017-06-24T15:50:43.489Z,18.67
2017-06-24T15:53:09.429Z,23.50
2017-06-24T15:55:35.398Z,19.67
2017-06-24T15:58:01.347Z,24.00
2017-06-24T16:00:27.292Z,18.33
2017-06-24T16:02:53.992Z,21.90
2017-06-24T16:05:19.949Z,18.33
2017-06-24T16:07:45.896Z,18.37
2017-06-24T16:10:11.849Z,18.13
2017-06-24T16:12:37.812Z,16.37
2017-06-24T16:15:03.765Z,21.13
2017-06-24T16:17:29.708Z,21.37
2017-06-24T16:19:55.666Z,21.47
2017-06-24T16:22:21.636Z,20.77
2017-06-24T16:24:47.610Z,19.37
2017-06-24T16:27:13.553Z,26.33
2017-06-24T16:29:40.249Z,20.63
2017-06-24T16:32:06.217Z,21.77
2017-06-24T16:34:32.911Z,25.30
2017-06-24T16:36:58.855Z,29.80
2017-06-24T16:39:24.817Z,25.00
2017-06-24T16:41:50.806Z,27.73
2017-06-24T16:44:16.769Z,23.47
2017-06-24T16:46:42.735Z,35.73
2017-06-24T16:49:08.726Z,28.27
2017-06-24T16:51:34.713Z,27.30
2017-06-24T16:54:00.680Z,26.07
2017-06-24T16:56:26.648Z,24.07
2017-06-24T16:58:52.617Z,26.53
2017-06-24T17:01:18.597Z,29.20
2017-06-24T17:03:44.573Z,31.10
2017-06-24T17:06:10.550Z,28.50
2017-06-24T17:08:36.536Z,25.80
2017-06-24T17:11:02.480Z,27.97
2017-06-24T17:13:29.164Z,29.10
2017-06-24T17:15:55.097Z,24.10
2017-06-24T17:18:21.043Z,27.57
2017-06-24T17:20:47.076Z,21.57
2017-06-24T17:23:13.773Z,28.93
2017-06-24T17:25:39.722Z,24.10
2017-06-24T17:28:05.676Z,23.57
2017-06-24T17:30:31.617Z,31.67
2017-06-24T17:32:57.568Z,28.57
2017-06-24T17:35:23.508Z,24.53
2017-06-24T17:37:50.582Z,24.30
2017-06-24T17:40:16.680Z,25.10
2017-06-24T17:42:42.974Z,22.20
2017-06-24T17:45:10.110Z,22.93
2017-06-24T17:47:36.068Z,23.43
2017-06-24T17:50:02.069Z,26.00
2017-06-24T17:52:28.061Z,23.37
2017-06-24T17:54:54.033Z,21.47
2017-06-24T17:57:19.977Z,21.97
2017-06-24T17:59:47.063Z,22.40
2017-06-24T18:02:13.079Z,24.23
2017-06-24T18:04:39.024Z,24.40
2017-06-24T18:07:04.965Z,26.50
2017-06-24T18:09:34.833Z,25.00
2017-06-24T18:12:01.606Z,24.67
2017-06-24T18:14:28.128Z,21.87
2017-06-24T18:16:54.468Z,34.23
2017-06-24T18:19:20.481Z,21.40
2017-06-24T18:21:46.651Z,20.60
2017-06-24T18:24:12.893Z,26.67
2017-06-24T18:26:39.150Z,23.27
2017-06-24T18:29:05.205Z,21.53
2017-06-24T18:31:31.398Z,19.70
2017-06-24T18:34:01.780Z,19.07
2017-06-24T18:36:29.499Z,18.30
2017-06-24T18:38:56.117Z,23.27
2017-06-24T18:41:22.203Z,18.60
2017-06-24T18:43:48.334Z,21.20
2017-06-24T18:46:14.329Z,18.80
2017-06-24T18:48:40.440Z,19.00
2017-06-24T18:51:06.632Z,19.00
2017-06-24T18:53:32.912Z,17.23
2017-06-24T18:55:58.908Z,17.33
2017-06-24T18:58:25.823Z,19.70
2017-06-24T19:00:52.784Z,28.83
2017-06-24T19:03:19.034Z,21.07
2017-06-24T19:05:45.353Z,25.00
2017-06-24T19:08:11.426Z,19.77
2017-06-24T19:10:37.650Z,20.53
2017-06-24T19:13:03.799Z,24.43
2017-06-24T19:15:30.028Z,22.60
2017-06-24T19:17:56.035Z,23.40
2017-06-24T19:20:22.979Z,22.80
2017-06-24T19:22:48.966Z,22.93
2017-06-24T19:25:14.925Z,23.30
2017-06-24T19:27:40.877Z,20.00
2017-06-24T19:30:07.009Z,23.97
2017-06-24T19:32:33.001Z,21.27
2017-06-24T19:34:58.941Z,20.03
2017-06-24T19:37:25.183Z,24.23
2017-06-24T19:39:52.224Z,18.43
2017-06-24T19:42:18.213Z,19.87
2017-06-24T19:44:44.896Z,19.77
2017-06-24T19:47:10.870Z,36.47
2017-06-24T19:49:36.808Z,22.33
2017-06-24T19:52:02.745Z,22.70
2017-06-24T19:54:28.742Z,21.83
2017-06-24T19:56:54.704Z,20.80
2017-06-24T19:59:20.661Z,20.87
2017-06-24T20:01:47.346Z,21.10
2017-06-24T20:04:13.502Z,19.87
2017-06-24T20:06:39.484Z,22.30
2017-06-24T20:09:05.460Z,23.00
2017-06-24T20:11:31.411Z,29.07
2017-06-24T20:13:57.360Z,24.27
2017-06-24T20:16:23.333Z,20.13
2017-06-24T20:18:50.008Z,18.57
2017-06-24T20:21:16.001Z,18.40
2017-06-24T20:23:42.677Z,23.43
2017-06-24T20:26:08.625Z,18.63
2017-06-24T20:28:34.574Z,24.30
2017-06-24T20:31:01.269Z,20.30
2017-06-24T20:33:27.226Z,16.93
2017-06-24T20:35:53.909Z,17.00
2017-06-24T20:38:19.869Z,18.43
2017-06-24T20:40:45.808Z,19.47
2017-06-24T20:43:11.756Z,14.07
2017-06-24T20:45:37.712Z,15.33
2017-06-24T20:48:03.656Z,18.00
2017-06-24T20:50:29.613Z,14.27
2017-06-24T20:52:55.565Z,16.63
2017-06-24T20:55:21.505Z,16.80
2017-06-24T20:57:47.476Z,17.73
2017-06-24T21:00:14.168Z,17.93
2017-06-24T21:02:40.125Z,18.30
2017-06-24T21:05:06.809Z,16.93
2017-06-24T21:07:32.769Z,13.23
2017-06-24T21:09:59.671Z,17.13
2017-06-24T21:12:25.856Z,16.27
2017-06-24T21:14:51.850Z,15.70
2017-06-24T21:17:18.876Z,18.13
2017-06-24T21:19:44.820Z,16.70
2017-06-24T21:22:10.773Z,15.03
2017-06-24T21:24:36.741Z,18.30
2017-06-24T21:27:02.672Z,20.03
2017-06-24T21:29:28.628Z,25.77
2017-06-24T21:31:55.328Z,24.47
2017-06-24T21:34:21.264Z,24.93
2017-06-24T21:36:47.208Z,22.07
2017-06-24T21:39:13.163Z,22.50
2017-06-24T21:41:39.104Z,21.90
2017-06-24T21:44:05.040Z,19.07
2017-06-24T21:46:30.981Z,23.00
2017-06-24T21:48:57.672Z,20.40
2017-06-24T21:51:23.620Z,19.20
2017-06-24T21:53:49.560Z,21.63
2017-06-24T21:56:16.261Z,18.80
2017-06-24T21:58:42.215Z,17.67
2017-06-24T22:01:08.924Z,15.60
2017-06-24T22:03:34.868Z,17.67
2017-06-24T22:06:00.809Z,18.33
2017-06-24T22:08:27.504Z,16.97
2017-06-24T22:10:53.448Z,13.17
2017-06-24T22:13:19.394Z,15.70
2017-06-24T22:15:45.364Z,13.90
2017-06-24T22:18:11.320Z,13.47
2017-06-24T22:20:37.268Z,13.80
2017-06-24T22:23:03.255Z,16.20
2017-06-24T22:25:29.265Z,12.50
2017-06-24T22:27:55.220Z,9.70
2017-06-24T22:30:21.930Z,9.17
2017-06-24T22:32:47.887Z,8.90
2017-06-24T22:35:13.832Z,7.77
2017-06-24T22:37:39.780Z,8.50
2017-06-24T22:40:05.809Z,8.93
2017-06-24T22:53:31.396Z,6.30
2017-06-24T22:55:59.672Z,8.80
2017-06-24T22:58:28.626Z,6.10
2017-06-24T23:00:56.822Z,5.83
2017-06-24T23:03:25.005Z,5.97
2017-06-24T23:05:53.304Z,5.97
2017-06-24T23:08:21.560Z,5.20
2017-06-24T23:10:50.660Z,5.53
2017-06-24T23:13:19.605Z,9.40
2017-06-24T23:15:47.832Z,5.10
2017-06-24T23:18:16.788Z,5.00
2017-06-24T23:20:44.994Z,5.30
2017-06-24T23:23:13.944Z,5.30
2017-06-24T23:25:42.158Z,7.60
2017-06-24T23:28:11.153Z,5.90
2017-06-24T23:30:40.097Z,7.40
2017-06-24T23:33:08.316Z,6.63
2017-06-24T23:35:36.513Z,5.70
2017-06-24T23:38:04.701Z,5.67
2017-06-24T23:40:32.936Z,4.97
2017-06-24T23:43:01.131Z,4.87
2017-06-24T23:45:30.098Z,5.40
2017-06-24T23:47:58.853Z,4.63
2017-06-24T23:50:27.517Z,4.70
2017-06-24T23:52:56.044Z,4.10
2017-06-24T23:55:24.698Z,6.60
2017-06-24T23:57:52.886Z,6.33
